Time;durP1;ratioP1;P1;durP2;ratioP2;P2;SDS_P1;SDS_P2;PMS_P1;PMS_P2;Temp;Humidity;BMP_temperature;BMP_pressure;BME280_temperature;BME280_humidity;BME280_pressure;Samples;Min_cycle;Max_cycle;Signal;HPM_P1;HPM_P2
2023/03/15 00:01:02;;;;;;;8.20;2.00;;;2.10;1.00;;;;;;5035627;28;20210;-79
2023/03/15 00:03:28;;;;;;;6.90;2.40;;;2.20;1.00;;;;;;5034653;28;20190;-80
2023/03/15 00:05:54;;;;;;;6.97;1.87;;;2.10;1.00;;;;;;5035780;28;20198;-78
2023/03/15 00:08:20;;;;;;;10.67;1.67;;;2.20;1.00;;;;;;5038517;28;20182;-78
2023/03/15 00:10:46;;;;;;;6.80;1.27;;;2.10;1.00;;;;;;5052293;28;20619;-81
2023/03/15 00:13:14;;;;;;;8.77;2.23;;;2.20;1.00;;;;;;5037414;28;20209;-79
2023/03/15 00:15:48;;;;;;;8.90;1.70;;;2.30;1.00;;;;;;5052347;28;20206;-79
2023/03/15 00:18:15;;;;;;;6.27;1.60;;;2.30;1.00;;;;;;5036494;28;20186;-79
2023/03/15 00:20:41;;;;;;;5.63;1.57;;;2.00;1.00;;;;;;5040263;28;20190;-79
2023/03/15 00:23:06;;;;;;;7.50;1.50;;;2.00;1.00;;;;;;5040205;28;20185;-79
2023/03/15 00:25:32;;;;;;;6.33;1.30;;;1.90;1.00;;;;;;5040879;28;20206;-79
2023/03/15 00:27:57;;;;;;;8.40;1.40;;;2.00;1.00;;;;;;5040507;28;20301;-79
2023/03/15 00:30:23;;;;;;;7.20;1.40;;;2.00;1.00;;;;;;5054946;28;20214;-80
2023/03/15 00:32:52;;;;;;;8.10;2.23;;;2.00;1.00;;;;;;5040495;28;20236;-79
2023/03/15 00:35:18;;;;;;;5.93;1.40;;;1.90;1.00;;;;;;5054865;28;20256;-78
2023/03/15 00:37:44;;;;;;;6.27;1.60;;;1.90;1.00;;;;;;5040166;28;20265;-79
2023/03/15 00:40:11;;;;;;;9.23;1.80;;;1.90;1.00;;;;;;5046884;28;20191;-79
2023/03/15 00:42:37;;;;;;;7.13;1.80;;;1.90;1.00;;;;;;5039998;28;20248;-79
2023/03/15 00:45:04;;;;;;;10.43;1.70;;;1.90;1.00;;;;;;5039220;28;20426;-80
2023/03/15 00:47:29;;;;;;;8.43;1.53;;;1.90;1.00;;;;;;5046144;28;20193;-79
2023/03/15 00:49:55;;;;;;;7.93;2.10;;;1.90;1.00;;;;;;5041051;28;20654;-78
2023/03/15 00:52:20;;;;;;;7.33;1.50;;;1.90;1.00;;;;;;5054991;28;20627;-79
2023/03/15 00:54:54;;;;;;;7.77;1.87;;;1.90;1.00;;;;;;5039212;28;20617;-79
2023/03/15 00:57:20;;;;;;;6.03;1.60;;;2.00;1.00;;;;;;5055263;28;20183;-79
2023/03/15 00:59:46;;;;;;;7.93;1.93;;;2.00;1.00;;;;;;5040420;28;20214;-78
2023/03/15 01:02:12;;;;;;;5.13;1.33;;;1.90;1.00;;;;;;5039935;28;20213;-79
2023/03/15 01:04:38;;;;;;;7.63;2.00;;;1.90;1.00;;;;;;5055174;28;20209;-79
2023/03/15 01:07:04;;;;;;;6.13;1.50;;;1.90;1.00;;;;;;5054107;28;20229;-78
2023/03/15 01:09:31;;;;;;;4.33;1.63;;;1.80;1.00;;;;;;5038561;28;20232;-78
2023/03/15 01:11:57;;;;;;;8.23;1.73;;;1.80;1.00;;;;;;5038180;28;20216;-78
2023/03/15 01:14:23;;;;;;;3.97;1.43;;;1.80;1.00;;;;;;5041541;28;20287;-79
2023/03/15 01:16:49;;;;;;;8.20;1.87;;;1.80;1.00;;;;;;5037828;28;20604;-79
2023/03/15 01:19:15;;;;;;;5.43;1.30;;;1.80;1.00;;;;;;5041835;28;20183;-80
2023/03/15 01:21:41;;;;;;;9.80;2.43;;;1.80;1.00;;;;;;5039601;28;20236;-79
2023/03/15 01:24:10;;;;;;;7.13;1.60;;;1.80;1.00;;;;;;5039835;28;20186;-80
2023/03/15 01:26:36;;;;;;;6.13;1.40;;;1.80;1.00;;;;;;5039766;28;20559;-79
2023/03/15 01:29:02;;;;;;;8.53;1.80;;;1.80;1.00;;;;;;5038524;28;20192;-80
2023/03/15 01:31:29;;;;;;;7.73;1.50;;;1.80;1.00;;;;;;5039127;28;20591;-80
2023/03/15 01:33:57;;;;;;;7.93;1.33;;;1.80;1.00;;;;;;5040054;28;20300;-78
2023/03/15 01:36:23;;;;;;;5.50;2.27;;;1.80;1.00;;;;;;5038997;28;20213;-79
2023/03/15 01:38:49;;;;;;;9.30;1.70;;;1.80;1.00;;;;;;5040324;28;20265;-79
2023/03/15 01:41:17;;;;;;;18.83;3.20;;;1.80;1.00;;;;;;5039322;28;20206;-79
2023/03/15 01:43:46;;;;;;;6.27;1.33;;;1.90;1.00;;;;;;5039106;28;20253;-79
2023/03/15 01:46:26;;;;;;;8.37;1.43;;;1.90;1.00;;;;;;5038771;28;20210;-78
2023/03/15 01:49:06;;;;;;;6.87;1.40;;;1.80;1.00;;;;;;5039922;28;20177;-79
2023/03/15 01:51:35;;;;;;;8.30;1.67;;;1.80;1.00;;;;;;5053370;28;21141;-79
2023/03/15 01:54:13;;;;;;;5.93;1.33;;;1.80;1.00;;;;;;5038284;28;20296;-80
2023/03/15 01:56:44;;;;;;;5.70;1.40;;;1.80;1.00;;;;;;5038844;28;20210;-80
2023/03/15 01:59:17;;;;;;;5.50;1.30;;;1.80;1.00;;;;;;5054701;28;20191;-79
2023/03/15 02:01:49;;;;;;;6.20;1.40;;;1.80;1.00;;;;;;5038244;28;20194;-79
2023/03/15 02:04:23;;;;;;;7.00;1.07;;;1.80;1.00;;;;;;5053788;28;20198;-79
2023/03/15 02:06:57;;;;;;;7.10;1.53;;;1.90;1.00;;;;;;5036595;28;21313;-80
2023/03/15 02:09:28;;;;;;;4.63;1.17;;;1.90;1.00;;;;;;5039276;28;20184;-79
2023/03/15 02:11:56;;;;;;;6.73;1.87;;;2.00;1.00;;;;;;5053909;28;20277;-79
2023/03/15 02:14:22;;;;;;;8.00;1.60;;;2.00;1.00;;;;;;5053930;28;20193;-79
2023/03/15 02:16:48;;;;;;;6.33;1.40;;;2.00;1.00;;;;;;5037489;28;20206;-80
2023/03/15 02:19:39;;;;;;;4.17;1.40;;;2.10;1.00;;;;;;5038949;28;20584;-79
2023/03/15 02:22:29;;;;;;;7.53;1.87;;;2.10;1.00;;;;;;5033386;28;20190;-78
2023/03/15 02:25:05;;;;;;;8.53;2.07;;;2.00;1.00;;;;;;5039260;28;20246;-79
2023/03/15 02:27:33;;;;;;;5.43;1.53;;;2.00;1.00;;;;;;5052803;28;20187;-80
2023/03/15 02:30:02;;;;;;;10.67;2.53;;;2.00;1.00;;;;;;5035685;28;20221;-78
2023/03/15 02:32:29;;;;;;;5.00;1.80;;;2.00;1.00;;;;;;5036031;28;20186;-78
2023/03/15 02:34:55;;;;;;;5.87;1.47;;;2.10;1.00;;;;;;5038682;28;20243;-79
2023/03/15 02:37:20;;;;;;;9.07;2.00;;;2.20;1.00;;;;;;5035842;28;20229;-80
2023/03/15 02:39:46;;;;;;;5.30;1.40;;;2.20;1.00;;;;;;5039472;28;20638;-80
2023/03/15 02:42:12;;;;;;;6.93;1.57;;;2.30;1.00;;;;;;5052225;28;20194;-79
2023/03/15 02:44:41;;;;;;;7.67;1.83;;;2.20;1.00;;;;;;5037588;28;20214;-79
2023/03/15 02:47:12;;;;;;;7.83;1.33;;;2.20;1.00;;;;;;5035938;28;20264;-79
2023/03/15 02:49:41;;;;;;;6.17;1.33;;;2.20;1.00;;;;;;5036851;28;20205;-79
2023/03/15 02:52:07;;;;;;;7.70;1.90;;;2.30;1.00;;;;;;5036831;28;20744;-79
2023/03/15 02:54:33;;;;;;;5.27;1.20;;;2.30;1.00;;;;;;5038290;28;20182;-80
2023/03/15 02:57:02;;;;;;;5.80;1.50;;;2.20;1.00;;;;;;5037738;28;20208;-79
2023/03/15 02:59:28;;;;;;;7.43;1.60;;;2.20;1.00;;;;;;5036402;28;20662;-79
2023/03/15 03:01:53;;;;;;;5.80;1.47;;;2.30;1.00;;;;;;5038863;28;20190;-78
2023/03/15 03:04:19;;;;;;;7.53;1.57;;;2.40;1.00;;;;;;5035792;28;20236;-79
2023/03/15 03:06:45;;;;;;;5.87;1.50;;;2.50;1.00;;;;;;5052376;28;20214;-78
2023/03/15 03:09:10;;;;;;;4.67;1.67;;;2.50;1.00;;;;;;5037756;28;20186;-79
2023/03/15 03:11:37;;;;;;;6.57;1.50;;;2.50;1.00;;;;;;5052965;28;20209;-79
2023/03/15 03:14:03;;;;;;;6.93;2.10;;;2.60;1.00;;;;;;5037281;28;20261;-80
2023/03/15 03:16:28;;;;;;;9.13;1.50;;;2.60;1.00;;;;;;5036927;28;20603;-78
2023/03/15 03:18:54;;;;;;;5.27;1.50;;;2.60;1.00;;;;;;5044225;28;20182;-79
2023/03/15 03:21:19;;;;;;;6.77;1.57;;;2.60;1.00;;;;;;5044184;28;20202;-78
2023/03/15 03:23:45;;;;;;;8.87;1.80;;;2.60;1.00;;;;;;5053347;28;20198;-79
2023/03/15 03:26:16;;;;;;;7.33;1.50;;;2.70;1.00;;;;;;5036151;28;20216;-78
2023/03/15 03:28:46;;;;;;;6.83;1.60;;;2.70;1.00;;;;;;5037134;28;20271;-78
2023/03/15 03:31:20;;;;;;;5.37;1.50;;;2.60;1.00;;;;;;5051302;28;20217;-78
2023/03/15 03:33:46;;;;;;;5.67;1.20;;;2.70;1.00;;;;;;5036688;28;20258;-80
2023/03/15 03:36:12;;;;;;;6.57;1.37;;;2.60;1.00;;;;;;5036233;28;20313;-79
2023/03/15 03:38:42;;;;;;;4.50;1.30;;;2.60;1.00;;;;;;5038370;28;20195;-78
2023/03/15 03:41:09;;;;;;;3.67;1.37;;;2.50;1.00;;;;;;5036600;28;20191;-78
2023/03/15 03:43:36;;;;;;;6.47;1.60;;;2.60;1.00;;;;;;5035693;28;20191;-79
2023/03/15 03:46:01;;;;;;;4.77;1.50;;;2.60;1.00;;;;;;5035888;28;20218;-79
2023/03/15 03:48:27;;;;;;;3.77;1.13;;;2.60;1.00;;;;;;5051367;28;20563;-78
2023/03/15 03:50:53;;;;;;;5.30;1.37;;;2.60;1.00;;;;;;5037444;28;20223;-78
2023/03/15 03:53:18;;;;;;;5.90;1.27;;;2.60;1.00;;;;;;5037479;28;20190;-78
2023/03/15 03:55:45;;;;;;;4.57;1.63;;;2.60;1.00;;;;;;5050827;28;20587;-78
2023/03/15 03:58:11;;;;;;;7.07;1.93;;;2.60;1.00;;;;;;5034470;28;20202;-78
2023/03/15 04:00:36;;;;;;;11.90;1.80;;;2.60;1.00;;;;;;5036658;28;20222;-78
2023/03/15 04:03:02;;;;;;;4.77;1.47;;;2.70;1.00;;;;;;5036905;28;20196;-78
2023/03/15 04:05:28;;;;;;;10.20;1.83;;;2.60;1.00;;;;;;5035208;28;20213;-79
2023/03/15 04:07:54;;;;;;;6.23;1.50;;;2.60;1.00;;;;;;5035725;28;20191;-78
2023/03/15 04:10:25;;;;;;;5.33;1.83;;;2.50;1.00;;;;;;5050804;28;20238;-78
2023/03/15 04:12:56;;;;;;;6.87;1.90;;;2.50;1.00;;;;;;5035329;28;20649;-79
2023/03/15 04:15:23;;;;;;;12.73;2.90;;;2.50;1.00;;;;;;5038598;28;20694;-79
2023/03/15 04:17:54;;;;;;;6.67;1.77;;;2.50;1.00;;;;;;5037920;28;20222;-78
2023/03/15 04:20:21;;;;;;;7.30;1.60;;;2.50;1.00;;;;;;5038006;28;20278;-78
2023/03/15 04:22:48;;;;;;;8.37;2.03;;;2.50;1.00;;;;;;5036701;28;20316;-79
2023/03/15 04:25:18;;;;;;;3.93;1.60;;;2.60;1.00;;;;;;5051335;28;20210;-79
2023/03/15 04:27:44;;;;;;;6.80;1.93;;;2.60;1.00;;;;;;5036692;28;20213;-78
2023/03/15 04:30:10;;;;;;;7.27;1.90;;;2.70;1.00;;;;;;5035394;28;20190;-79
2023/03/15 04:32:36;;;;;;;8.27;2.63;;;2.70;1.00;;;;;;5034834;28;20213;-78
2023/03/15 04:35:03;;;;;;;8.70;2.10;;;2.70;1.00;;;;;;5036588;28;20778;-79
2023/03/15 04:37:31;;;;;;;7.07;1.90;;;2.70;1.00;;;;;;5033707;28;20191;-79
2023/03/15 04:39:56;;;;;;;6.07;2.10;;;2.70;1.00;;;;;;5038138;28;20190;-79
2023/03/15 04:42:24;;;;;;;7.10;2.30;;;2.70;1.00;;;;;;5035791;28;20564;-79
2023/03/15 04:44:50;;;;;;;11.20;2.40;;;2.70;1.00;;;;;;5052767;28;20189;-78
2023/03/15 04:47:16;;;;;;;7.00;2.50;;;2.60;1.00;;;;;;5035392;28;20668;-80
2023/03/15 04:49:41;;;;;;;7.10;2.07;;;2.60;1.00;;;;;;5035697;28;20674;-78
2023/03/15 04:52:07;;;;;;;7.93;2.20;;;2.60;1.00;;;;;;5034898;28;20224;-79
2023/03/15 04:54:32;;;;;;;8.10;2.43;;;2.70;1.00;;;;;;5035536;28;20202;-78
2023/03/15 04:56:58;;;;;;;7.50;2.63;;;2.70;1.00;;;;;;5037111;28;20213;-78
2023/03/15 04:59:24;;;;;;;11.37;2.17;;;2.60;1.00;;;;;;5035848;28;20194;-78
2023/03/15 05:01:49;;;;;;;7.40;2.47;;;2.60;1.00;;;;;;5036732;28;20194;-79
2023/03/15 05:04:15;;;;;;;9.53;3.23;;;2.70;1.00;;;;;;5051540;28;20193;-79
2023/03/15 05:06:40;;;;;;;9.83;2.70;;;2.60;1.00;;;;;;5038754;28;20210;-78
2023/03/15 05:09:06;;;;;;;7.23;2.37;;;2.60;1.00;;;;;;5046441;28;20190;-78
2023/03/15 05:11:32;;;;;;;5.30;2.13;;;2.50;1.00;;;;;;5040345;28;20210;-78
2023/03/15 05:13:57;;;;;;;7.73;2.30;;;2.50;1.00;;;;;;5055038;28;20194;-78
2023/03/15 05:16:23;;;;;;;7.50;2.77;;;2.60;1.00;;;;;;5039355;28;20690;-79
2023/03/15 05:18:48;;;;;;;8.57;2.57;;;2.60;1.00;;;;;;5041365;28;20182;-78
2023/03/15 05:21:14;;;;;;;9.47;3.37;;;2.70;1.00;;;;;;5041180;28;20174;-79
2023/03/15 05:23:40;;;;;;;6.97;3.20;;;2.70;1.00;;;;;;5041489;28;20240;-79
2023/03/15 05:26:06;;;;;;;9.00;3.57;;;2.50;1.00;;;;;;5040984;28;20254;-78
2023/03/15 05:28:31;;;;;;;6.83;3.80;;;2.40;1.00;;;;;;5041495;28;20622;-78
2023/03/15 05:30:57;;;;;;;9.37;3.77;;;2.40;1.00;;;;;;5055932;28;20210;-78
2023/03/15 05:33:23;;;;;;;10.00;4.17;;;2.50;1.00;;;;;;5038753;28;20221;-79
2023/03/15 05:35:52;;;;;;;6.93;3.60;;;2.50;1.00;;;;;;5040326;28;20229;-78
2023/03/15 05:38:17;;;;;;;7.20;3.93;;;2.50;1.00;;;;;;5036606;28;20311;-80
2023/03/15 05:40:44;;;;;;;7.13;3.70;;;2.60;1.00;;;;;;5041217;28;20258;-79
2023/03/15 05:43:11;;;;;;;9.20;4.53;;;2.60;1.00;;;;;;5040020;28;20653;-80
2023/03/15 05:45:37;;;;;;;7.33;4.20;;;3.00;1.00;;;;;;5041213;28;20265;-79
2023/03/15 05:48:03;;;;;;;9.37;4.50;;;2.70;1.00;;;;;;5038179;28;20187;-79
2023/03/15 05:50:28;;;;;;;7.63;4.60;;;2.70;1.00;;;;;;5054049;28;20738;-80
2023/03/15 05:52:55;;;;;;;5.97;4.30;;;2.70;1.00;;;;;;5038359;28;20291;-79
2023/03/15 05:55:22;;;;;;;11.03;4.70;;;2.70;1.00;;;;;;5039344;28;20199;-80
2023/03/15 05:57:47;;;;;;;9.17;4.63;;;2.70;1.00;;;;;;5039001;28;20716;-79
2023/03/15 06:00:14;;;;;;;10.73;5.03;;;2.80;1.00;;;;;;5040485;28;20265;-78
2023/03/15 06:02:40;;;;;;;7.23;4.43;;;2.70;1.00;;;;;;5041382;28;20179;-78
2023/03/15 06:05:06;;;;;;;7.60;4.80;;;2.70;1.00;;;;;;5038249;28;20189;-78
2023/03/15 06:07:32;;;;;;;10.20;5.00;;;2.70;1.00;;;;;;5041471;28;20186;-78
2023/03/15 06:09:57;;;;;;;10.43;4.63;;;2.70;1.00;;;;;;5039454;28;20187;-78
2023/03/15 06:12:23;;;;;;;8.07;4.93;;;2.70;1.00;;;;;;5042828;28;20178;-77
2023/03/15 06:14:48;;;;;;;8.93;5.03;;;2.80;1.00;;;;;;5041070;28;20187;-78
2023/03/15 06:17:14;;;;;;;8.20;4.77;;;2.80;1.00;;;;;;5041524;28;20594;-77
2023/03/15 06:19:40;;;;;;;11.27;6.17;;;2.90;1.00;;;;;;5041533;28;20183;-77
2023/03/15 06:22:05;;;;;;;10.37;6.43;;;2.80;1.00;;;;;;5040609;28;20698;-77
2023/03/15 06:24:31;;;;;;;9.50;4.30;;;2.90;1.00;;;;;;5038267;28;20558;-79
2023/03/15 06:26:56;;;;;;;7.40;4.43;;;2.80;1.00;;;;;;5039565;28;20211;-78
2023/03/15 06:29:23;;;;;;;8.17;4.60;;;2.90;1.00;;;;;;5039286;28;20275;-78
2023/03/15 06:31:49;;;;;;;7.03;4.03;;;2.90;1.00;;;;;;5039869;28;20244;-77
2023/03/15 06:34:15;;;;;;;7.97;4.57;;;2.90;1.00;;;;;;5039117;28;20259;-78
2023/03/15 06:36:41;;;;;;;9.30;4.67;;;3.00;1.00;;;;;;5038390;28;20198;-78
2023/03/15 06:39:10;;;;;;;6.80;4.20;;;3.00;1.00;;;;;;5039867;28;20594;-77
2023/03/15 06:41:35;;;;;;;5.67;4.13;;;3.10;1.00;;;;;;5037863;28;20185;-78
2023/03/15 06:44:01;;;;;;;5.80;4.20;;;3.20;1.00;;;;;;5055133;28;20182;-77
2023/03/15 06:46:27;;;;;;;7.07;4.03;;;3.20;1.00;;;;;;5041331;28;20207;-78
2023/03/15 06:48:52;;;;;;;6.73;3.80;;;3.20;1.00;;;;;;5036974;28;20193;-78
2023/03/15 06:51:18;;;;;;;5.90;3.90;;;3.10;1.00;;;;;;5046196;28;20207;-77
2023/03/15 06:53:44;;;;;;;7.47;3.80;;;3.20;1.00;;;;;;5036371;28;20202;-78
2023/03/15 06:56:10;;;;;;;6.03;3.67;;;3.30;1.00;;;;;;5053793;28;20209;-78
2023/03/15 06:58:35;;;;;;;4.90;3.23;;;3.40;1.00;;;;;;5054214;28;20187;-77
2023/03/15 07:01:01;;;;;;;5.67;3.40;;;3.50;1.00;;;;;;5039379;28;20658;-77
2023/03/15 07:03:27;;;;;;;6.47;3.40;;;3.60;1.00;;;;;;5051724;28;20186;-78
2023/03/15 07:05:53;;;;;;;4.30;3.27;;;3.70;1.00;;;;;;5039536;28;20202;-78
2023/03/15 07:08:21;;;;;;;5.50;3.23;;;3.80;1.00;;;;;;5035234;28;20213;-77
2023/03/15 07:10:47;;;;;;;6.37;3.60;;;3.80;1.00;;;;;;5037962;28;20241;-77
2023/03/15 07:13:13;;;;;;;6.37;3.50;;;3.80;1.00;;;;;;5037205;28;20179;-78
2023/03/15 07:15:38;;;;;;;5.73;3.20;;;4.00;1.00;;;;;;5036549;28;20234;-77
2023/03/15 07:18:04;;;;;;;5.17;3.37;;;4.00;1.00;;;;;;5038466;28;20187;-78
2023/03/15 07:20:30;;;;;;;5.57;2.57;;;3.60;1.00;;;;;;5038258;28;20215;-78
2023/03/15 07:22:56;;;;;;;4.83;3.10;;;4.00;1.00;;;;;;5043958;28;20197;-77
2023/03/15 07:25:22;;;;;;;4.53;2.97;;;4.10;1.00;;;;;;5038129;28;20199;-78
2023/03/15 07:27:52;;;;;;;4.73;3.03;;;4.10;1.00;;;;;;5038941;28;20178;-78
2023/03/15 07:30:19;;;;;;;3.93;2.80;;;4.30;1.00;;;;;;5051614;28;20217;-78
2023/03/15 07:32:45;;;;;;;4.53;2.67;;;4.20;1.00;;;;;;5039439;28;20186;-78
2023/03/15 07:35:11;;;;;;;3.27;2.60;;;4.10;1.00;;;;;;5039459;28;20211;-78
2023/03/15 07:37:36;;;;;;;6.90;3.00;;;4.20;1.00;;;;;;5040414;28;20268;-78
2023/03/15 07:40:03;;;;;;;6.50;3.13;;;4.00;1.00;;;;;;5040953;28;20183;-78
2023/03/15 07:42:29;;;;;;;3.63;2.73;;;3.80;1.00;;;;;;5052350;28;20194;-79
2023/03/15 07:44:55;;;;;;;4.23;2.83;;;3.70;1.00;;;;;;5051902;28;20183;-79
2023/03/15 07:47:20;;;;;;;4.93;2.53;;;3.70;1.00;;;;;;5035707;28;20218;-79
2023/03/15 07:49:46;;;;;;;4.40;2.80;;;3.70;1.00;;;;;;5054232;28;20210;-79
2023/03/15 07:52:12;;;;;;;4.70;3.00;;;3.80;1.00;;;;;;5038693;28;20480;-78
2023/03/15 07:54:37;;;;;;;5.83;2.60;;;4.20;1.00;;;;;;5037501;28;20669;-78
2023/03/15 07:57:03;;;;;;;4.03;2.70;;;3.80;1.00;;;;;;5050684;28;20288;-79
2023/03/15 07:59:29;;;;;;;5.57;2.70;;;3.80;1.00;;;;;;5050856;28;20190;-78
2023/03/15 08:01:54;;;;;;;3.13;2.50;;;3.90;1.00;;;;;;5053340;28;20682;-78
2023/03/15 08:04:20;;;;;;;4.27;3.50;;;3.80;1.00;;;;;;5038494;28;20618;-79
2023/03/15 08:06:45;;;;;;;5.50;3.00;;;3.90;1.00;;;;;;5035353;28;20693;-79
2023/03/15 08:09:11;;;;;;;5.83;2.60;;;4.00;1.00;;;;;;5037381;28;20565;-78
2023/03/15 08:11:36;;;;;;;6.20;2.60;;;4.00;1.00;;;;;;5038164;28;20701;-79
2023/03/15 08:14:02;;;;;;;5.73;3.73;;;4.10;1.00;;;;;;5037711;28;20642;-79
2023/03/15 08:16:27;;;;;;;3.43;3.03;;;4.20;1.00;;;;;;5037533;28;20202;-79
2023/03/15 08:18:53;;;;;;;6.33;3.30;;;4.30;1.00;;;;;;5038457;28;20252;-80
2023/03/15 08:21:19;;;;;;;5.80;3.20;;;4.40;1.00;;;;;;5037674;28;20220;-79
2023/03/15 08:23:44;;;;;;;4.83;3.23;;;4.50;1.00;;;;;;5040038;28;20198;-79
2023/03/15 08:26:10;;;;;;;5.23;2.90;;;4.60;1.00;;;;;;5039885;28;20344;-78
2023/03/15 08:28:35;;;;;;;2.83;2.47;;;4.60;1.00;;;;;;5039326;28;20222;-79
2023/03/15 08:31:06;;;;;;;3.03;2.37;;;4.60;1.00;;;;;;5053117;28;20323;-79
2023/03/15 08:33:32;;;;;;;4.10;2.67;;;4.50;1.00;;;;;;5037425;28;20189;-78
2023/03/15 08:35:57;;;;;;;3.40;2.47;;;4.60;1.00;;;;;;5051696;28;20202;-79
2023/03/15 08:38:23;;;;;;;8.13;3.73;;;4.80;1.00;;;;;;5036342;28;20659;-78
2023/03/15 08:40:48;;;;;;;4.43;2.70;;;4.90;1.00;;;;;;5041867;28;20186;-77
2023/03/15 08:43:14;;;;;;;4.53;3.13;;;4.80;1.00;;;;;;5038202;28;20195;-78
2023/03/15 08:45:40;;;;;;;3.77;2.57;;;4.70;1.00;;;;;;5036529;28;20233;-78
2023/03/15 08:48:06;;;;;;;4.37;3.03;;;4.70;1.00;;;;;;5056349;28;20187;-79
2023/03/15 08:50:31;;;;;;;5.63;2.93;;;4.80;1.00;;;;;;5039362;28;20206;-78
2023/03/15 08:52:57;;;;;;;4.07;2.50;;;4.90;1.00;;;;;;5036509;28;20217;-78
2023/03/15 08:55:23;;;;;;;7.27;2.87;;;5.10;1.00;;;;;;5039512;28;20225;-78
2023/03/15 08:57:49;;;;;;;4.43;2.47;;;5.20;1.00;;;;;;5046348;28;20221;-78
2023/03/15 09:00:19;;;;;;;3.43;2.30;;;5.40;1.00;;;;;;5040969;28;20189;-78
2023/03/15 09:02:47;;;;;;;4.27;2.43;;;5.40;1.00;;;;;;5041422;28;20795;-78
2023/03/15 09:05:14;;;;;;;5.10;2.30;;;5.30;1.00;;;;;;5039511;28;20202;-78
2023/03/15 09:07:41;;;;;;;4.50;2.43;;;5.40;1.00;;;;;;5039209;28;20250;-79
2023/03/15 09:10:08;;;;;;;5.73;2.50;;;5.30;1.00;;;;;;5052172;28;20244;-77
2023/03/15 09:12:34;;;;;;;3.20;2.43;;;5.30;1.00;;;;;;5041875;28;20197;-78
2023/03/15 09:15:00;;;;;;;4.97;2.67;;;5.20;1.00;;;;;;5039184;28;20179;-77
2023/03/15 09:17:26;;;;;;;4.30;2.47;;;5.30;1.00;;;;;;5039889;28;20182;-78
2023/03/15 09:19:51;;;;;;;4.17;2.43;;;5.20;1.00;;;;;;5038514;28;20669;-78
2023/03/15 09:22:17;;;;;;;5.47;2.80;;;5.20;1.00;;;;;;5041020;28;20203;-78
2023/03/15 09:24:42;;;;;;;4.93;3.00;;;5.20;1.00;;;;;;5038923;28;20195;-78
2023/03/15 09:27:10;;;;;;;4.20;2.60;;;5.50;1.00;;;;;;5055623;28;20294;-77
2023/03/15 09:29:36;;;;;;;3.70;2.07;;;5.90;1.00;;;;;;5053740;28;20186;-78
2023/03/15 09:32:02;;;;;;;5.27;2.20;;;6.10;1.00;;;;;;5038268;28;20222;-79
2023/03/15 09:34:27;;;;;;;5.60;2.30;;;5.90;1.00;;;;;;5036230;28;20240;-78
2023/03/15 09:36:53;;;;;;;4.03;1.87;;;5.50;1.00;;;;;;5038103;28;20210;-77
2023/03/15 09:39:20;;;;;;;3.87;2.23;;;5.40;1.00;;;;;;5055881;28;20285;-78
2023/03/15 09:41:53;;;;;;;5.77;2.03;;;5.50;1.00;;;;;;5037428;28;20534;-78
2023/03/15 09:44:26;;;;;;;5.30;1.97;;;5.60;1.00;;;;;;5036660;28;20547;-78
2023/03/15 09:47:18;;;;;;;4.77;2.17;;;5.70;1.00;;;;;;5039557;28;20209;-77
2023/03/15 09:50:12;;;;;;;5.17;2.50;;;5.90;1.00;;;;;;5050024;28;20206;-78
2023/03/15 09:52:44;;;;;;;5.07;2.30;;;6.10;1.00;;;;;;5044007;28;20662;-78
2023/03/15 09:55:20;;;;;;;6.13;2.50;;;6.20;1.00;;;;;;5038230;28;20199;-77
2023/03/15 09:57:55;;;;;;;5.00;2.43;;;6.20;1.00;;;;;;5055175;28;20526;-78
2023/03/15 10:00:45;;;;;;;5.27;2.60;;;6.30;1.00;;;;;;5044842;28;20182;-78
2023/03/15 10:03:29;;;;;;;7.40;2.43;;;6.40;1.00;;;;;;5036172;28;20661;-77
2023/03/15 10:06:04;;;;;;;7.60;3.20;;;6.40;1.00;;;;;;5038338;28;20300;-77
2023/03/15 10:08:30;;;;;;;5.87;3.50;;;6.30;1.00;;;;;;5038357;28;20210;-77
2023/03/15 10:11:30;;;;;;;7.90;2.90;;;6.20;1.00;;;;;;5038173;28;20235;-76
2023/03/15 10:14:14;;;;;;;9.53;3.10;;;6.10;1.00;;;;;;5032616;28;20698;-77
2023/03/15 10:16:48;;;;;;;6.53;2.60;;;6.10;1.00;;;;;;5038154;28;20194;-77
2023/03/15 10:19:50;;;;;;;6.47;2.90;;;6.40;1.00;;;;;;5035856;28;20273;-78
2023/03/15 10:22:59;;;;;;;5.73;2.60;;;6.80;1.00;;;;;;5037865;28;20181;-78
2023/03/15 10:25:29;;;;;;;5.17;2.57;;;6.90;1.00;;;;;;5002080;28;20686;-78
2023/03/15 10:27:55;;;;;;;5.63;2.57;;;6.80;1.00;;;;;;5038322;28;20211;-77
2023/03/15 10:30:24;;;;;;;5.87;3.00;;;6.80;1.00;;;;;;5044827;28;20232;-77
2023/03/15 10:33:10;;;;;;;7.67;3.03;;;6.80;1.00;;;;;;5035888;28;20183;-78
2023/03/15 10:35:37;;;;;;;9.40;3.60;;;6.40;1.00;;;;;;5037428;28;20206;-77
2023/03/15 10:38:15;;;;;;;10.63;3.30;;;6.40;1.00;;;;;;5037930;28;20182;-78
2023/03/15 10:40:49;;;;;;;8.80;3.03;;;6.30;1.00;;;;;;5045169;28;20191;-78
2023/03/15 10:43:35;;;;;;;9.83;2.50;;;6.20;1.00;;;;;;5037008;28;20178;-78
2023/03/15 10:46:22;;;;;;;6.17;2.50;;;6.00;1.00;;;;;;5038166;28;20201;-78
2023/03/15 10:49:00;;;;;;;6.47;2.70;;;5.60;1.00;;;;;;5038058;28;20594;-78
2023/03/15 10:51:31;;;;;;;6.33;2.70;;;5.80;1.00;;;;;;5052291;28;20209;-78
2023/03/15 10:54:17;;;;;;;5.27;1.90;;;6.20;1.00;;;;;;5042340;28;20182;-77
2023/03/15 10:56:46;;;;;;;10.60;2.77;;;6.50;1.00;;;;;;5033421;28;20209;-77
2023/03/15 10:59:23;;;;;;;5.77;2.20;;;6.60;1.00;;;;;;5034472;28;20179;-79
2023/03/15 11:01:51;;;;;;;8.30;2.80;;;6.80;1.00;;;;;;5036156;28;20182;-78
2023/03/15 11:04:21;;;;;;;6.90;2.50;;;6.90;1.00;;;;;;5042335;28;20194;-77
2023/03/15 11:07:02;;;;;;;4.33;1.83;;;7.30;1.00;;;;;;5050457;28;21359;-77
2023/03/15 11:09:40;;;;;;;7.40;1.90;;;7.70;1.00;;;;;;5036953;28;20297;-79
2023/03/15 11:12:14;;;;;;;5.37;1.80;;;7.60;1.00;;;;;;5036087;28;20228;-78
2023/03/15 11:14:43;;;;;;;9.17;2.37;;;7.50;1.00;;;;;;5033113;28;20244;-78
2023/03/15 11:17:26;;;;;;;7.37;2.10;;;7.10;1.00;;;;;;5030913;28;20203;-78
2023/03/15 11:19:55;;;;;;;5.10;1.70;;;7.00;1.00;;;;;;5035523;28;20186;-77
2023/03/15 11:22:22;;;;;;;4.67;2.17;;;6.40;1.00;;;;;;5036281;28;20600;-78
2023/03/15 11:24:48;;;;;;;4.57;1.60;;;6.30;1.00;;;;;;5036567;28;20240;-77
2023/03/15 11:27:16;;;;;;;4.50;1.50;;;5.90;1.00;;;;;;5037642;28;20235;-78
2023/03/15 11:29:53;;;;;;;4.40;1.33;;;5.90;1.00;;;;;;5037526;28;20212;-76
2023/03/15 11:32:22;;;;;;;4.40;1.43;;;5.80;1.00;;;;;;5038656;28;20298;-78
2023/03/15 11:35:20;;;;;;;4.63;1.93;;;5.70;1.00;;;;;;5036183;28;20183;-78
2023/03/15 11:38:02;;;;;;;4.83;1.40;;;5.50;1.00;;;;;;5035952;28;20579;-77
2023/03/15 11:40:40;;;;;;;5.90;1.50;;;5.50;1.00;;;;;;5037326;28;20193;-78
2023/03/15 11:43:37;;;;;;;4.43;1.50;;;5.50;1.00;;;;;;5036710;28;20244;-78
2023/03/15 11:46:13;;;;;;;5.03;1.43;;;5.60;1.00;;;;;;5037761;28;20289;-78
2023/03/15 11:49:10;;;;;;;5.60;1.30;;;5.70;1.00;;;;;;5036392;28;20261;-78
2023/03/15 11:51:36;;;;;;;4.73;1.30;;;5.80;1.00;;;;;;5038454;28;20216;-77
2023/03/15 11:54:16;;;;;;;5.00;1.53;;;5.90;1.00;;;;;;5037608;28;20179;-79
2023/03/15 11:56:54;;;;;;;3.80;1.50;;;6.00;1.00;;;;;;5040254;28;20244;-77
2023/03/15 11:59:31;;;;;;;9.07;1.90;;;6.10;1.00;;;;;;5037831;28;20674;-77
2023/03/15 12:02:27;;;;;;;6.40;2.77;;;6.10;1.00;;;;;;5037591;28;20182;-77
2023/03/15 12:04:54;;;;;;;4.73;2.00;;;6.10;1.00;;;;;;5038573;28;20186;-77
2023/03/15 12:07:22;;;;;;;3.37;1.20;;;6.00;1.00;;;;;;5038852;28;20560;-79
2023/03/15 12:10:03;;;;;;;2.87;1.37;;;5.80;1.00;;;;;;5036819;28;20228;-78
2023/03/15 12:12:29;;;;;;;5.10;1.00;;;5.70;1.00;;;;;;5042070;28;20229;-77
2023/03/15 12:15:13;;;;;;;9.03;1.93;;;5.50;1.00;;;;;;5037562;28;20213;-77
2023/03/15 12:17:42;;;;;;;6.30;1.40;;;5.30;1.00;;;;;;5038248;28;20210;-78
2023/03/15 12:20:10;;;;;;;6.60;1.30;;;5.10;1.00;;;;;;5045279;28;20555;-79
2023/03/15 12:22:41;;;;;;;5.70;1.47;;;5.00;1.00;;;;;;5056745;28;20538;-80
2023/03/15 12:25:21;;;;;;;6.40;2.37;;;4.90;1.00;;;;;;5046273;28;20194;-79
2023/03/15 12:27:52;;;;;;;5.50;1.50;;;4.80;1.00;;;;;;5039320;28;20182;-80
2023/03/15 12:30:22;;;;;;;3.33;1.30;;;4.80;1.00;;;;;;5039326;28;20202;-78
2023/03/15 12:32:53;;;;;;;3.93;1.30;;;4.80;1.00;;;;;;5035991;28;20244;-80
2023/03/15 12:35:21;;;;;;;3.20;1.63;;;4.90;1.00;;;;;;5039480;28;20282;-79
2023/03/15 12:37:49;;;;;;;7.40;1.63;;;4.90;1.00;;;;;;5040345;28;20182;-79
2023/03/15 12:40:15;;;;;;;6.63;1.60;;;5.00;1.00;;;;;;5038352;28;20669;-79
2023/03/15 12:42:41;;;;;;;4.63;1.50;;;5.00;1.00;;;;;;5056103;28;20189;-80
2023/03/15 12:45:15;;;;;;;4.60;1.80;;;5.10;1.00;;;;;;5036647;28;20218;-78
2023/03/15 12:47:50;;;;;;;3.97;1.50;;;5.20;1.00;;;;;;5055567;28;20232;-78
2023/03/15 12:50:36;;;;;;;3.37;1.07;;;5.50;1.00;;;;;;5053693;28;20178;-77
2023/03/15 12:53:03;;;;;;;2.30;1.03;;;5.80;1.00;;;;;;5040904;28;20187;-77
2023/03/15 12:55:33;;;;;;;5.10;0.90;;;5.90;1.00;;;;;;5040230;28;20267;-77
2023/03/15 12:58:03;;;;;;;4.33;1.40;;;6.30;1.00;;;;;;5040289;28;20274;-77
2023/03/15 13:00:31;;;;;;;5.93;1.70;;;6.20;1.00;;;;;;5040614;28;20179;-77
2023/03/15 13:03:18;;;;;;;6.03;1.27;;;6.10;1.00;;;;;;5046500;28;20269;-77
2023/03/15 13:06:07;;;;;;;5.53;1.73;;;6.10;1.00;;;;;;5040089;28;20206;-77
2023/03/15 13:08:56;;;;;;;5.37;1.83;;;5.90;1.00;;;;;;5039048;28;20186;-77
2023/03/15 13:11:24;;;;;;;6.00;2.70;;;6.10;1.00;;;;;;5040205;28;20186;-77
2023/03/15 13:14:12;;;;;;;7.00;2.27;;;5.60;1.00;;;;;;5036368;28;20962;-77
2023/03/15 13:17:02;;;;;;;5.40;1.70;;;5.60;1.00;;;;;;5038108;28;20273;-76
2023/03/15 13:19:40;;;;;;;5.13;1.60;;;6.10;1.00;;;;;;5036407;28;20179;-77